Chapel Arm, Canada
Current Conditions -  °F | °C
As of 8:00 AM on Friday 24 Oct 2014 (Local Time) from CYYT Reporting Station
Light Rain Light Rain  
Wind Chill: 43°   Ceiling: 100
Heat Index: 48°   Visibility: 0.25mi
Dew Point: 48°   Wind: 13mph
Humidity: 100%   Direction: 110°ESE
Pressure: 30.01"   Gusts: 20mph
Location:  47.52°N, 53.67°W
Report Text: CYYT 241000Z 11011G17KT 1/4SM R11/3000FT/D -RA FG VV001 09/09 A3001 RMK FG8 SLP167
Loading
Personal Weather Stations






























Interactive Weather Map
Tropical Storm Tracking
New forecast layout! Learn more

10-Day Weather Forecast

Advertisements
Track Severe Weather on mobile